sensor_id;sensor_type;location;lat;lon;timestamp;P1;durP1;ratioP1;P2;durP2;ratioP2
1412;SDS011;701;52.526;13.408;2022-08-19T00:00:17;15.80;;;11.43;;
1412;SDS011;701;52.526;13.408;2022-08-19T00:02:44;19.67;;;11.95;;
1412;SDS011;701;52.526;13.408;2022-08-19T00:05:11;15.98;;;12.25;;
1412;SDS011;701;52.526;13.408;2022-08-19T00:07:38;17.92;;;12.18;;
1412;SDS011;701;52.526;13.408;2022-08-19T00:10:06;17.33;;;12.57;;
1412;SDS011;701;52.526;13.408;2022-08-19T00:12:33;16.37;;;12.33;;
1412;SDS011;701;52.526;13.408;2022-08-19T00:14:59;17.63;;;12.40;;
1412;SDS011;701;52.526;13.408;2022-08-19T00:17:25;21.33;;;12.65;;
1412;SDS011;701;52.526;13.408;2022-08-19T00:19:50;18.17;;;12.60;;
1412;SDS011;701;52.526;13.408;2022-08-19T00:22:16;18.38;;;12.18;;
1412;SDS011;701;52.526;13.408;2022-08-19T00:24:43;19.08;;;12.98;;
1412;SDS011;701;52.526;13.408;2022-08-19T00:27:10;20.85;;;13.40;;
1412;SDS011;701;52.526;13.408;2022-08-19T00:29:37;19.80;;;13.23;;
1412;SDS011;701;52.526;13.408;2022-08-19T00:32:03;19.58;;;13.45;;
1412;SDS011;701;52.526;13.408;2022-08-19T00:34:29;17.75;;;12.82;;
1412;SDS011;701;52.526;13.408;2022-08-19T00:36:56;16.67;;;11.95;;
1412;SDS011;701;52.526;13.408;2022-08-19T00:39:23;17.43;;;12.63;;
1412;SDS011;701;52.526;13.408;2022-08-19T00:41:49;20.60;;;13.52;;
1412;SDS011;701;52.526;13.408;2022-08-19T00:44:17;20.67;;;13.60;;
1412;SDS011;701;52.526;13.408;2022-08-19T00:46:49;21.35;;;13.40;;
1412;SDS011;701;52.526;13.408;2022-08-19T00:49:23;19.33;;;13.80;;
1412;SDS011;701;52.526;13.408;2022-08-19T00:51:51;18.83;;;13.27;;
1412;SDS011;701;52.526;13.408;2022-08-19T00:54:20;23.23;;;13.82;;
1412;SDS011;701;52.526;13.408;2022-08-19T00:56:47;20.17;;;13.90;;
1412;SDS011;701;52.526;13.408;2022-08-19T00:59:14;23.92;;;14.75;;
1412;SDS011;701;52.526;13.408;2022-08-19T01:01:41;20.98;;;14.45;;
1412;SDS011;701;52.526;13.408;2022-08-19T01:04:08;23.10;;;14.93;;
1412;SDS011;701;52.526;13.408;2022-08-19T01:06:35;19.73;;;13.55;;
1412;SDS011;701;52.526;13.408;2022-08-19T01:09:03;19.90;;;13.00;;
1412;SDS011;701;52.526;13.408;2022-08-19T01:11:30;21.27;;;13.80;;
1412;SDS011;701;52.526;13.408;2022-08-19T01:13:59;18.87;;;13.17;;
1412;SDS011;701;52.526;13.408;2022-08-19T01:16:25;17.40;;;12.95;;
1412;SDS011;701;52.526;13.408;2022-08-19T01:18:53;18.73;;;13.27;;
1412;SDS011;701;52.526;13.408;2022-08-19T01:21:28;19.70;;;12.93;;
1412;SDS011;701;52.526;13.408;2022-08-19T01:23:59;20.65;;;13.50;;
1412;SDS011;701;52.526;13.408;2022-08-19T01:26:25;21.25;;;13.35;;
1412;SDS011;701;52.526;13.408;2022-08-19T01:28:54;19.77;;;12.77;;
1412;SDS011;701;52.526;13.408;2022-08-19T01:31:24;16.15;;;12.40;;
1412;SDS011;701;52.526;13.408;2022-08-19T01:33:52;19.10;;;13.40;;
1412;SDS011;701;52.526;13.408;2022-08-19T01:39:09;22.40;;;13.32;;
1412;SDS011;701;52.526;13.408;2022-08-19T01:41:38;19.45;;;13.07;;
1412;SDS011;701;52.526;13.408;2022-08-19T01:44:05;19.70;;;13.50;;
1412;SDS011;701;52.526;13.408;2022-08-19T01:46:32;21.45;;;12.90;;
1412;SDS011;701;52.526;13.408;2022-08-19T01:48:58;19.00;;;13.23;;
1412;SDS011;701;52.526;13.408;2022-08-19T01:51:24;23.05;;;12.95;;
1412;SDS011;701;52.526;13.408;2022-08-19T01:53:50;19.03;;;13.43;;
1412;SDS011;701;52.526;13.408;2022-08-19T01:56:17;19.08;;;13.80;;
1412;SDS011;701;52.526;13.408;2022-08-19T01:58:45;22.65;;;13.38;;
1412;SDS011;701;52.526;13.408;2022-08-19T02:01:16;19.80;;;13.65;;
1412;SDS011;701;52.526;13.408;2022-08-19T02:03:42;22.47;;;13.90;;
1412;SDS011;701;52.526;13.408;2022-08-19T02:06:08;22.75;;;13.48;;
1412;SDS011;701;52.526;13.408;2022-08-19T02:08:35;21.13;;;14.30;;
1412;SDS011;701;52.526;13.408;2022-08-19T02:11:02;20.47;;;13.80;;
1412;SDS011;701;52.526;13.408;2022-08-19T02:13:28;23.10;;;13.77;;
1412;SDS011;701;52.526;13.408;2022-08-19T02:15:54;21.63;;;14.02;;
1412;SDS011;701;52.526;13.408;2022-08-19T02:18:20;25.42;;;14.73;;
1412;SDS011;701;52.526;13.408;2022-08-19T02:20:46;24.03;;;14.70;;
1412;SDS011;701;52.526;13.408;2022-08-19T02:23:15;22.63;;;14.18;;
1412;SDS011;701;52.526;13.408;2022-08-19T02:25:43;21.48;;;14.82;;
1412;SDS011;701;52.526;13.408;2022-08-19T02:28:10;22.15;;;14.75;;
1412;SDS011;701;52.526;13.408;2022-08-19T02:30:36;20.60;;;15.23;;
1412;SDS011;701;52.526;13.408;2022-08-19T02:33:03;21.13;;;14.90;;
1412;SDS011;701;52.526;13.408;2022-08-19T02:35:30;20.70;;;13.70;;
1412;SDS011;701;52.526;13.408;2022-08-19T02:37:56;20.25;;;13.65;;
1412;SDS011;701;52.526;13.408;2022-08-19T02:40:47;19.60;;;13.05;;
1412;SDS011;701;52.526;13.408;2022-08-19T02:43:16;19.97;;;13.63;;
1412;SDS011;701;52.526;13.408;2022-08-19T02:45:43;22.48;;;13.80;;
1412;SDS011;701;52.526;13.408;2022-08-19T02:48:08;25.95;;;14.98;;
1412;SDS011;701;52.526;13.408;2022-08-19T02:50:38;21.77;;;13.70;;
1412;SDS011;701;52.526;13.408;2022-08-19T02:53:04;25.48;;;14.73;;
1412;SDS011;701;52.526;13.408;2022-08-19T02:55:31;19.75;;;14.18;;
1412;SDS011;701;52.526;13.408;2022-08-19T02:57:57;22.40;;;15.02;;
1412;SDS011;701;52.526;13.408;2022-08-19T03:00:22;23.70;;;15.23;;
1412;SDS011;701;52.526;13.408;2022-08-19T03:02:49;23.40;;;14.80;;
1412;SDS011;701;52.526;13.408;2022-08-19T03:05:15;21.83;;;14.73;;
1412;SDS011;701;52.526;13.408;2022-08-19T03:07:40;24.80;;;15.37;;
1412;SDS011;701;52.526;13.408;2022-08-19T03:10:06;21.33;;;14.70;;
1412;SDS011;701;52.526;13.408;2022-08-19T03:12:34;21.35;;;14.55;;
1412;SDS011;701;52.526;13.408;2022-08-19T03:15:02;23.80;;;14.90;;
1412;SDS011;701;52.526;13.408;2022-08-19T03:17:29;20.03;;;14.10;;
1412;SDS011;701;52.526;13.408;2022-08-19T03:19:55;22.55;;;14.23;;
1412;SDS011;701;52.526;13.408;2022-08-19T03:22:21;20.57;;;13.60;;
1412;SDS011;701;52.526;13.408;2022-08-19T03:24:47;21.73;;;13.75;;
1412;SDS011;701;52.526;13.408;2022-08-19T03:27:12;20.73;;;14.23;;
1412;SDS011;701;52.526;13.408;2022-08-19T03:29:39;21.37;;;13.57;;
1412;SDS011;701;52.526;13.408;2022-08-19T03:32:05;18.98;;;13.15;;
1412;SDS011;701;52.526;13.408;2022-08-19T03:34:32;19.23;;;13.32;;
1412;SDS011;701;52.526;13.408;2022-08-19T03:37:02;21.08;;;13.45;;
1412;SDS011;701;52.526;13.408;2022-08-19T03:39:30;21.27;;;14.07;;
1412;SDS011;701;52.526;13.408;2022-08-19T03:41:56;21.38;;;14.18;;
1412;SDS011;701;52.526;13.408;2022-08-19T03:44:27;20.67;;;13.68;;
1412;SDS011;701;52.526;13.408;2022-08-19T03:46:54;23.60;;;15.10;;
1412;SDS011;701;52.526;13.408;2022-08-19T03:49:22;20.73;;;14.43;;
1412;SDS011;701;52.526;13.408;2022-08-19T03:51:50;25.17;;;14.87;;
1412;SDS011;701;52.526;13.408;2022-08-19T03:54:19;22.55;;;14.85;;
1412;SDS011;701;52.526;13.408;2022-08-19T03:56:48;22.67;;;15.43;;
1412;SDS011;701;52.526;13.408;2022-08-19T03:59:19;22.17;;;14.57;;
1412;SDS011;701;52.526;13.408;2022-08-19T04:02:00;21.55;;;14.40;;
1412;SDS011;701;52.526;13.408;2022-08-19T04:04:28;23.90;;;15.00;;
1412;SDS011;701;52.526;13.408;2022-08-19T04:06:54;23.55;;;14.82;;
1412;SDS011;701;52.526;13.408;2022-08-19T04:09:20;20.58;;;14.35;;
1412;SDS011;701;52.526;13.408;2022-08-19T04:11:48;22.17;;;15.33;;
1412;SDS011;701;52.526;13.408;2022-08-19T04:14:21;20.60;;;14.63;;
1412;SDS011;701;52.526;13.408;2022-08-19T04:16:53;23.30;;;14.68;;
1412;SDS011;701;52.526;13.408;2022-08-19T04:19:19;22.20;;;14.33;;
1412;SDS011;701;52.526;13.408;2022-08-19T04:21:46;23.58;;;15.43;;
1412;SDS011;701;52.526;13.408;2022-08-19T04:24:13;27.23;;;15.85;;
1412;SDS011;701;52.526;13.408;2022-08-19T04:26:39;26.48;;;15.77;;
1412;SDS011;701;52.526;13.408;2022-08-19T04:29:07;22.37;;;15.80;;
1412;SDS011;701;52.526;13.408;2022-08-19T04:31:35;23.20;;;15.45;;
1412;SDS011;701;52.526;13.408;2022-08-19T04:34:03;22.67;;;15.13;;
1412;SDS011;701;52.526;13.408;2022-08-19T04:36:32;24.90;;;16.42;;
1412;SDS011;701;52.526;13.408;2022-08-19T04:39:01;23.23;;;16.00;;
1412;SDS011;701;52.526;13.408;2022-08-19T04:41:30;23.30;;;16.07;;
1412;SDS011;701;52.526;13.408;2022-08-19T04:44:14;25.27;;;14.95;;
1412;SDS011;701;52.526;13.408;2022-08-19T04:46:43;23.83;;;16.70;;
1412;SDS011;701;52.526;13.408;2022-08-19T04:49:13;21.98;;;16.55;;
1412;SDS011;701;52.526;13.408;2022-08-19T04:51:41;23.25;;;15.73;;
1412;SDS011;701;52.526;13.408;2022-08-19T04:54:09;22.70;;;16.00;;
1412;SDS011;701;52.526;13.408;2022-08-19T04:56:34;23.25;;;15.90;;
1412;SDS011;701;52.526;13.408;2022-08-19T04:59:00;25.30;;;16.10;;
1412;SDS011;701;52.526;13.408;2022-08-19T05:01:30;21.40;;;15.73;;
1412;SDS011;701;52.526;13.408;2022-08-19T05:03:59;23.70;;;15.52;;
1412;SDS011;701;52.526;13.408;2022-08-19T05:06:30;23.50;;;16.23;;
1412;SDS011;701;52.526;13.408;2022-08-19T05:08:59;20.98;;;15.60;;
1412;SDS011;701;52.526;13.408;2022-08-19T05:11:27;21.07;;;15.10;;
1412;SDS011;701;52.526;13.408;2022-08-19T05:13:54;21.83;;;14.70;;
1412;SDS011;701;52.526;13.408;2022-08-19T05:16:21;25.73;;;15.82;;
1412;SDS011;701;52.526;13.408;2022-08-19T05:18:49;20.10;;;14.48;;
1412;SDS011;701;52.526;13.408;2022-08-19T05:21:34;22.65;;;16.23;;
1412;SDS011;701;52.526;13.408;2022-08-19T05:24:20;19.00;;;14.40;;
1412;SDS011;701;52.526;13.408;2022-08-19T05:26:48;19.38;;;14.13;;
1412;SDS011;701;52.526;13.408;2022-08-19T05:29:16;21.88;;;13.48;;
1412;SDS011;701;52.526;13.408;2022-08-19T05:31:44;19.35;;;13.73;;
1412;SDS011;701;52.526;13.408;2022-08-19T05:34:10;23.10;;;14.52;;
1412;SDS011;701;52.526;13.408;2022-08-19T05:36:39;21.33;;;14.20;;
1412;SDS011;701;52.526;13.408;2022-08-19T05:39:07;18.98;;;13.45;;
1412;SDS011;701;52.526;13.408;2022-08-19T05:41:34;18.35;;;13.57;;
1412;SDS011;701;52.526;13.408;2022-08-19T05:44:01;20.23;;;13.80;;
1412;SDS011;701;52.526;13.408;2022-08-19T05:46:31;16.13;;;12.05;;
1412;SDS011;701;52.526;13.408;2022-08-19T05:48:57;18.85;;;12.60;;
1412;SDS011;701;52.526;13.408;2022-08-19T05:51:24;18.10;;;13.25;;
1412;SDS011;701;52.526;13.408;2022-08-19T05:53:50;19.13;;;14.07;;
1412;SDS011;701;52.526;13.408;2022-08-19T05:56:16;20.73;;;14.17;;
1412;SDS011;701;52.526;13.408;2022-08-19T05:58:44;18.55;;;13.65;;
1412;SDS011;701;52.526;13.408;2022-08-19T06:01:11;22.33;;;14.52;;
1412;SDS011;701;52.526;13.408;2022-08-19T06:03:38;19.13;;;13.63;;
1412;SDS011;701;52.526;13.408;2022-08-19T06:06:05;18.45;;;12.48;;
1412;SDS011;701;52.526;13.408;2022-08-19T06:08:33;20.37;;;12.40;;
1412;SDS011;701;52.526;13.408;2022-08-19T06:11:13;18.55;;;12.45;;
1412;SDS011;701;52.526;13.408;2022-08-19T06:13:51;17.83;;;12.18;;
1412;SDS011;701;52.526;13.408;2022-08-19T06:16:19;19.70;;;13.00;;
1412;SDS011;701;52.526;13.408;2022-08-19T06:18:50;18.02;;;11.95;;
1412;SDS011;701;52.526;13.408;2022-08-19T06:21:19;16.73;;;11.60;;
1412;SDS011;701;52.526;13.408;2022-08-19T06:23:46;19.55;;;11.40;;
1412;SDS011;701;52.526;13.408;2022-08-19T06:26:12;15.85;;;11.68;;
1412;SDS011;701;52.526;13.408;2022-08-19T06:28:40;16.45;;;11.75;;
1412;SDS011;701;52.526;13.408;2022-08-19T06:31:12;18.85;;;13.30;;
1412;SDS011;701;52.526;13.408;2022-08-19T06:33:42;15.87;;;11.93;;
1412;SDS011;701;52.526;13.408;2022-08-19T06:36:17;16.83;;;11.65;;
1412;SDS011;701;52.526;13.408;2022-08-19T06:38:43;19.92;;;12.70;;
1412;SDS011;701;52.526;13.408;2022-08-19T06:41:10;15.52;;;11.32;;
1412;SDS011;701;52.526;13.408;2022-08-19T06:43:36;18.15;;;11.27;;
1412;SDS011;701;52.526;13.408;2022-08-19T06:46:02;15.23;;;10.87;;
1412;SDS011;701;52.526;13.408;2022-08-19T06:48:29;16.17;;;11.05;;
1412;SDS011;701;52.526;13.408;2022-08-19T06:50:55;18.77;;;11.55;;
1412;SDS011;701;52.526;13.408;2022-08-19T06:53:21;15.57;;;11.20;;
1412;SDS011;701;52.526;13.408;2022-08-19T06:55:47;18.25;;;11.98;;
1412;SDS011;701;52.526;13.408;2022-08-19T06:58:12;18.90;;;10.80;;
1412;SDS011;701;52.526;13.408;2022-08-19T07:00:39;16.53;;;11.00;;
1412;SDS011;701;52.526;13.408;2022-08-19T07:03:05;17.65;;;11.65;;
1412;SDS011;701;52.526;13.408;2022-08-19T07:05:31;15.55;;;11.25;;
1412;SDS011;701;52.526;13.408;2022-08-19T07:07:56;14.80;;;11.80;;
1412;SDS011;701;52.526;13.408;2022-08-19T07:10:22;14.27;;;11.20;;
1412;SDS011;701;52.526;13.408;2022-08-19T07:12:48;16.90;;;11.65;;
1412;SDS011;701;52.526;13.408;2022-08-19T07:15:15;18.75;;;11.15;;
1412;SDS011;701;52.526;13.408;2022-08-19T07:17:41;20.87;;;11.73;;
1412;SDS011;701;52.526;13.408;2022-08-19T07:20:09;17.52;;;12.10;;
1412;SDS011;701;52.526;13.408;2022-08-19T07:22:38;17.23;;;11.00;;
1412;SDS011;701;52.526;13.408;2022-08-19T07:25:05;18.63;;;12.25;;
1412;SDS011;701;52.526;13.408;2022-08-19T07:27:33;19.48;;;12.05;;
1412;SDS011;701;52.526;13.408;2022-08-19T07:29:59;14.37;;;10.93;;
1412;SDS011;701;52.526;13.408;2022-08-19T07:32:25;18.65;;;11.63;;
1412;SDS011;701;52.526;13.408;2022-08-19T07:34:51;15.95;;;11.70;;
1412;SDS011;701;52.526;13.408;2022-08-19T07:37:17;16.17;;;11.40;;
1412;SDS011;701;52.526;13.408;2022-08-19T07:39:43;17.13;;;11.00;;
1412;SDS011;701;52.526;13.408;2022-08-19T07:42:09;15.88;;;11.15;;
1412;SDS011;701;52.526;13.408;2022-08-19T07:44:36;16.57;;;11.57;;
1412;SDS011;701;52.526;13.408;2022-08-19T07:47:03;17.83;;;11.65;;
1412;SDS011;701;52.526;13.408;2022-08-19T07:49:29;18.95;;;12.15;;
1412;SDS011;701;52.526;13.408;2022-08-19T07:54:27;16.92;;;11.70;;
1412;SDS011;701;52.526;13.408;2022-08-19T07:56:54;17.63;;;12.07;;
1412;SDS011;701;52.526;13.408;2022-08-19T07:59:20;17.58;;;12.20;;
1412;SDS011;701;52.526;13.408;2022-08-19T08:01:46;17.60;;;12.27;;
1412;SDS011;701;52.526;13.408;2022-08-19T08:04:13;16.98;;;12.25;;
1412;SDS011;701;52.526;13.408;2022-08-19T08:06:57;16.23;;;12.52;;
1412;SDS011;701;52.526;13.408;2022-08-19T08:09:42;19.20;;;12.83;;
1412;SDS011;701;52.526;13.408;2022-08-19T08:14:37;17.45;;;12.70;;
1412;SDS011;701;52.526;13.408;2022-08-19T08:17:24;17.95;;;12.77;;
1412;SDS011;701;52.526;13.408;2022-08-19T08:19:52;16.45;;;13.45;;
1412;SDS011;701;52.526;13.408;2022-08-19T08:22:19;17.03;;;12.90;;
1412;SDS011;701;52.526;13.408;2022-08-19T08:25:09;17.20;;;13.27;;
1412;SDS011;701;52.526;13.408;2022-08-19T08:27:41;16.40;;;12.90;;
1412;SDS011;701;52.526;13.408;2022-08-19T08:30:09;19.63;;;12.88;;
1412;SDS011;701;52.526;13.408;2022-08-19T08:32:37;21.63;;;14.05;;
1412;SDS011;701;52.526;13.408;2022-08-19T08:35:04;22.47;;;13.90;;
1412;SDS011;701;52.526;13.408;2022-08-19T08:37:31;19.40;;;12.85;;
1412;SDS011;701;52.526;13.408;2022-08-19T08:39:57;19.88;;;13.52;;
1412;SDS011;701;52.526;13.408;2022-08-19T08:42:25;18.17;;;13.10;;
1412;SDS011;701;52.526;13.408;2022-08-19T08:45:12;20.57;;;13.87;;
1412;SDS011;701;52.526;13.408;2022-08-19T08:47:43;21.08;;;14.30;;
1412;SDS011;701;52.526;13.408;2022-08-19T08:50:19;22.23;;;13.73;;
1412;SDS011;701;52.526;13.408;2022-08-19T08:52:50;16.30;;;13.23;;
1412;SDS011;701;52.526;13.408;2022-08-19T08:55:22;18.48;;;13.30;;
1412;SDS011;701;52.526;13.408;2022-08-19T08:57:53;21.10;;;14.03;;
1412;SDS011;701;52.526;13.408;2022-08-19T09:00:33;20.85;;;13.10;;
1412;SDS011;701;52.526;13.408;2022-08-19T09:03:02;17.42;;;13.30;;
1412;SDS011;701;52.526;13.408;2022-08-19T09:05:41;19.08;;;13.77;;
1412;SDS011;701;52.526;13.408;2022-08-19T09:11:03;17.97;;;13.50;;
1412;SDS011;701;52.526;13.408;2022-08-19T09:16:12;15.68;;;12.38;;
1412;SDS011;701;52.526;13.408;2022-08-19T09:18:45;17.40;;;13.52;;
1412;SDS011;701;52.526;13.408;2022-08-19T09:21:15;22.60;;;15.85;;
1412;SDS011;701;52.526;13.408;2022-08-19T09:23:41;17.33;;;11.87;;
1412;SDS011;701;52.526;13.408;2022-08-19T09:26:12;16.10;;;12.63;;
1412;SDS011;701;52.526;13.408;2022-08-19T09:28:41;21.35;;;12.07;;
1412;SDS011;701;52.526;13.408;2022-08-19T09:31:15;18.60;;;12.60;;
1412;SDS011;701;52.526;13.408;2022-08-19T09:33:44;14.50;;;11.35;;
1412;SDS011;701;52.526;13.408;2022-08-19T09:36:10;16.90;;;12.13;;
1412;SDS011;701;52.526;13.408;2022-08-19T09:38:39;16.45;;;11.70;;
1412;SDS011;701;52.526;13.408;2022-08-19T09:41:13;17.48;;;11.70;;
1412;SDS011;701;52.526;13.408;2022-08-19T09:43:44;16.25;;;11.93;;
1412;SDS011;701;52.526;13.408;2022-08-19T09:46:12;16.02;;;11.80;;
1412;SDS011;701;52.526;13.408;2022-08-19T09:48:41;14.03;;;11.23;;
1412;SDS011;701;52.526;13.408;2022-08-19T09:51:09;14.52;;;11.43;;
1412;SDS011;701;52.526;13.408;2022-08-19T09:53:40;15.63;;;11.18;;
1412;SDS011;701;52.526;13.408;2022-08-19T09:56:06;17.52;;;10.93;;
1412;SDS011;701;52.526;13.408;2022-08-19T09:58:32;16.57;;;11.23;;
1412;SDS011;701;52.526;13.408;2022-08-19T10:00:59;14.45;;;10.98;;
1412;SDS011;701;52.526;13.408;2022-08-19T10:03:27;18.38;;;11.60;;
1412;SDS011;701;52.526;13.408;2022-08-19T10:05:54;16.40;;;10.63;;
1412;SDS011;701;52.526;13.408;2022-08-19T10:08:23;14.68;;;10.90;;
1412;SDS011;701;52.526;13.408;2022-08-19T10:10:51;21.10;;;11.07;;
1412;SDS011;701;52.526;13.408;2022-08-19T10:13:18;17.98;;;11.43;;
1412;SDS011;701;52.526;13.408;2022-08-19T10:15:48;14.65;;;10.68;;
1412;SDS011;701;52.526;13.408;2022-08-19T10:18:18;15.75;;;10.75;;
1412;SDS011;701;52.526;13.408;2022-08-19T10:20:45;18.95;;;11.25;;
1412;SDS011;701;52.526;13.408;2022-08-19T10:23:12;13.93;;;10.57;;
1412;SDS011;701;52.526;13.408;2022-08-19T10:25:40;14.65;;;11.20;;
1412;SDS011;701;52.526;13.408;2022-08-19T10:28:07;15.25;;;11.60;;
1412;SDS011;701;52.526;13.408;2022-08-19T10:30:34;14.07;;;10.70;;
1412;SDS011;701;52.526;13.408;2022-08-19T10:33:01;15.15;;;11.15;;
1412;SDS011;701;52.526;13.408;2022-08-19T10:35:26;20.93;;;11.17;;
1412;SDS011;701;52.526;13.408;2022-08-19T10:37:54;16.08;;;10.93;;
1412;SDS011;701;52.526;13.408;2022-08-19T10:40:24;14.85;;;10.40;;
1412;SDS011;701;52.526;13.408;2022-08-19T10:42:51;15.67;;;10.60;;
1412;SDS011;701;52.526;13.408;2022-08-19T10:45:17;16.27;;;10.65;;
1412;SDS011;701;52.526;13.408;2022-08-19T10:47:44;14.35;;;10.63;;
1412;SDS011;701;52.526;13.408;2022-08-19T10:50:09;16.37;;;11.37;;
1412;SDS011;701;52.526;13.408;2022-08-19T10:52:53;17.67;;;10.93;;
1412;SDS011;701;52.526;13.408;2022-08-19T10:55:21;15.23;;;11.10;;
1412;SDS011;701;52.526;13.408;2022-08-19T10:58:13;15.55;;;10.30;;
1412;SDS011;701;52.526;13.408;2022-08-19T11:00:41;17.45;;;11.27;;
1412;SDS011;701;52.526;13.408;2022-08-19T11:03:08;20.20;;;10.77;;
1412;SDS011;701;52.526;13.408;2022-08-19T11:05:34;15.40;;;12.10;;
1412;SDS011;701;52.526;13.408;2022-08-19T11:08:00;15.93;;;10.90;;
1412;SDS011;701;52.526;13.408;2022-08-19T11:10:26;19.40;;;11.67;;
1412;SDS011;701;52.526;13.408;2022-08-19T11:12:51;16.73;;;11.00;;
1412;SDS011;701;52.526;13.408;2022-08-19T11:15:20;15.60;;;10.65;;
1412;SDS011;701;52.526;13.408;2022-08-19T11:17:46;16.87;;;10.20;;
1412;SDS011;701;52.526;13.408;2022-08-19T11:20:12;16.60;;;10.15;;
1412;SDS011;701;52.526;13.408;2022-08-19T11:22:39;14.60;;;10.15;;
1412;SDS011;701;52.526;13.408;2022-08-19T11:25:06;13.60;;;9.63;;
1412;SDS011;701;52.526;13.408;2022-08-19T11:27:32;16.10;;;10.52;;
1412;SDS011;701;52.526;13.408;2022-08-19T11:29:58;16.30;;;10.63;;
1412;SDS011;701;52.526;13.408;2022-08-19T11:32:25;14.77;;;10.20;;
1412;SDS011;701;52.526;13.408;2022-08-19T11:34:52;14.63;;;10.10;;
1412;SDS011;701;52.526;13.408;2022-08-19T11:37:17;15.07;;;10.53;;
1412;SDS011;701;52.526;13.408;2022-08-19T11:39:43;15.88;;;10.65;;
1412;SDS011;701;52.526;13.408;2022-08-19T11:42:09;14.60;;;9.67;;
1412;SDS011;701;52.526;13.408;2022-08-19T11:44:53;15.63;;;10.25;;
1412;SDS011;701;52.526;13.408;2022-08-19T11:47:19;15.40;;;10.20;;
1412;SDS011;701;52.526;13.408;2022-08-19T11:49:45;14.23;;;9.77;;
1412;SDS011;701;52.526;13.408;2022-08-19T11:52:12;15.68;;;9.70;;
1412;SDS011;701;52.526;13.408;2022-08-19T11:54:37;13.40;;;9.63;;
1412;SDS011;701;52.526;13.408;2022-08-19T11:57:03;14.07;;;9.43;;
1412;SDS011;701;52.526;13.408;2022-08-19T11:59:29;17.00;;;8.55;;
1412;SDS011;701;52.526;13.408;2022-08-19T12:01:55;16.53;;;9.23;;
1412;SDS011;701;52.526;13.408;2022-08-19T12:04:23;16.02;;;9.02;;
1412;SDS011;701;52.526;13.408;2022-08-19T12:06:49;14.00;;;9.25;;
1412;SDS011;701;52.526;13.408;2022-08-19T12:09:15;14.73;;;8.30;;
1412;SDS011;701;52.526;13.408;2022-08-19T12:11:42;11.68;;;8.68;;
1412;SDS011;701;52.526;13.408;2022-08-19T12:14:12;12.98;;;8.52;;
1412;SDS011;701;52.526;13.408;2022-08-19T12:16:39;12.00;;;8.70;;
1412;SDS011;701;52.526;13.408;2022-08-19T12:19:06;12.17;;;8.80;;
1412;SDS011;701;52.526;13.408;2022-08-19T12:21:33;13.93;;;8.27;;
1412;SDS011;701;52.526;13.408;2022-08-19T12:24:00;13.75;;;8.32;;
1412;SDS011;701;52.526;13.408;2022-08-19T12:26:28;13.07;;;8.13;;
1412;SDS011;701;52.526;13.408;2022-08-19T12:28:56;11.45;;;8.10;;
1412;SDS011;701;52.526;13.408;2022-08-19T12:31:24;11.27;;;7.20;;
1412;SDS011;701;52.526;13.408;2022-08-19T12:33:51;11.75;;;7.75;;
1412;SDS011;701;52.526;13.408;2022-08-19T12:36:17;14.07;;;7.85;;
1412;SDS011;701;52.526;13.408;2022-08-19T12:38:43;10.90;;;7.03;;
1412;SDS011;701;52.526;13.408;2022-08-19T12:41:10;10.88;;;7.93;;
1412;SDS011;701;52.526;13.408;2022-08-19T12:43:39;10.70;;;7.60;;
1412;SDS011;701;52.526;13.408;2022-08-19T12:46:06;12.25;;;7.53;;
1412;SDS011;701;52.526;13.408;2022-08-19T12:48:32;11.60;;;7.32;;
1412;SDS011;701;52.526;13.408;2022-08-19T12:50:58;14.23;;;7.07;;
1412;SDS011;701;52.526;13.408;2022-08-19T12:53:24;11.23;;;7.50;;
1412;SDS011;701;52.526;13.408;2022-08-19T12:55:56;10.75;;;7.03;;
1412;SDS011;701;52.526;13.408;2022-08-19T12:58:24;13.20;;;7.47;;
1412;SDS011;701;52.526;13.408;2022-08-19T13:00:50;11.88;;;7.88;;
1412;SDS011;701;52.526;13.408;2022-08-19T13:03:16;10.50;;;7.37;;
1412;SDS011;701;52.526;13.408;2022-08-19T13:05:42;12.02;;;8.25;;
1412;SDS011;701;52.526;13.408;2022-08-19T13:08:07;12.27;;;7.63;;
1412;SDS011;701;52.526;13.408;2022-08-19T13:10:34;13.80;;;9.13;;
1412;SDS011;701;52.526;13.408;2022-08-19T13:13:01;10.60;;;7.77;;
1412;SDS011;701;52.526;13.408;2022-08-19T13:15:32;10.82;;;7.88;;
1412;SDS011;701;52.526;13.408;2022-08-19T13:18:02;13.43;;;8.95;;
1412;SDS011;701;52.526;13.408;2022-08-19T13:20:28;12.35;;;8.70;;
1412;SDS011;701;52.526;13.408;2022-08-19T13:22:54;15.77;;;9.10;;
1412;SDS011;701;52.526;13.408;2022-08-19T13:25:22;13.32;;;8.82;;
1412;SDS011;701;52.526;13.408;2022-08-19T13:27:48;12.68;;;8.25;;
1412;SDS011;701;52.526;13.408;2022-08-19T13:30:16;12.60;;;8.73;;
1412;SDS011;701;52.526;13.408;2022-08-19T13:33:02;11.40;;;8.47;;
1412;SDS011;701;52.526;13.408;2022-08-19T13:35:40;13.32;;;8.50;;
1412;SDS011;701;52.526;13.408;2022-08-19T13:38:22;15.35;;;8.38;;
1412;SDS011;701;52.526;13.408;2022-08-19T13:40:48;12.55;;;8.35;;
1412;SDS011;701;52.526;13.408;2022-08-19T13:43:15;11.43;;;8.23;;
1412;SDS011;701;52.526;13.408;2022-08-19T13:45:41;12.30;;;8.40;;
1412;SDS011;701;52.526;13.408;2022-08-19T13:48:07;13.95;;;8.80;;
1412;SDS011;701;52.526;13.408;2022-08-19T13:50:37;13.10;;;8.82;;
1412;SDS011;701;52.526;13.408;2022-08-19T13:53:09;13.20;;;8.40;;
1412;SDS011;701;52.526;13.408;2022-08-19T13:55:39;12.47;;;8.60;;
1412;SDS011;701;52.526;13.408;2022-08-19T13:58:07;13.05;;;8.93;;
1412;SDS011;701;52.526;13.408;2022-08-19T14:00:35;15.07;;;9.00;;
1412;SDS011;701;52.526;13.408;2022-08-19T14:03:03;12.02;;;8.27;;
1412;SDS011;701;52.526;13.408;2022-08-19T14:05:30;11.95;;;8.38;;
1412;SDS011;701;52.526;13.408;2022-08-19T14:07:57;12.20;;;8.73;;
1412;SDS011;701;52.526;13.408;2022-08-19T14:10:23;11.95;;;9.07;;
1412;SDS011;701;52.526;13.408;2022-08-19T14:12:54;13.75;;;8.82;;
1412;SDS011;701;52.526;13.408;2022-08-19T14:15:20;14.13;;;8.77;;
1412;SDS011;701;52.526;13.408;2022-08-19T14:17:48;12.30;;;8.98;;
1412;SDS011;701;52.526;13.408;2022-08-19T14:20:14;14.03;;;8.90;;
1412;SDS011;701;52.526;13.408;2022-08-19T14:22:41;14.30;;;10.13;;
1412;SDS011;701;52.526;13.408;2022-08-19T14:25:08;12.88;;;8.63;;
1412;SDS011;701;52.526;13.408;2022-08-19T14:27:36;12.45;;;8.65;;
1412;SDS011;701;52.526;13.408;2022-08-19T14:30:04;12.53;;;8.57;;
1412;SDS011;701;52.526;13.408;2022-08-19T14:32:32;13.75;;;8.60;;
1412;SDS011;701;52.526;13.408;2022-08-19T14:34:58;15.20;;;9.05;;
1412;SDS011;701;52.526;13.408;2022-08-19T14:37:24;13.83;;;8.67;;
1412;SDS011;701;52.526;13.408;2022-08-19T14:39:50;12.60;;;8.38;;
1412;SDS011;701;52.526;13.408;2022-08-19T14:42:16;13.63;;;7.78;;
1412;SDS011;701;52.526;13.408;2022-08-19T14:44:42;11.10;;;8.60;;
1412;SDS011;701;52.526;13.408;2022-08-19T14:47:08;11.85;;;8.50;;
1412;SDS011;701;52.526;13.408;2022-08-19T14:49:34;12.07;;;7.85;;
1412;SDS011;701;52.526;13.408;2022-08-19T14:52:00;12.68;;;8.77;;
1412;SDS011;701;52.526;13.408;2022-08-19T14:54:27;11.63;;;8.27;;
1412;SDS011;701;52.526;13.408;2022-08-19T14:56:53;12.77;;;8.20;;
1412;SDS011;701;52.526;13.408;2022-08-19T14:59:19;11.88;;;8.20;;
1412;SDS011;701;52.526;13.408;2022-08-19T15:01:45;10.47;;;7.90;;
1412;SDS011;701;52.526;13.408;2022-08-19T15:04:10;11.40;;;8.15;;
1412;SDS011;701;52.526;13.408;2022-08-19T15:06:36;12.03;;;8.20;;
1412;SDS011;701;52.526;13.408;2022-08-19T15:09:02;11.27;;;7.43;;